Time;durP1;ratioP1;P1;durP2;ratioP2;P2;SDS_P1;SDS_P2;PMS_P1;PMS_P2;Temp;Humidity;BMP_temperature;BMP_pressure;BME280_temperature;BME280_humidity;BME280_pressure;Samples;Min_cycle;Max_cycle;Signal;HPM_P1;HPM_P2
2022/06/24 00:00:42;;;;;;;4.32;3.92;;;25.80;60.70;;;;;;5003838;28;20740;-68
2022/06/24 00:03:19;;;;;;;4.45;3.95;;;25.80;60.60;;;;;;5011391;28;20447;-68
2022/06/24 00:05:46;;;;;;;4.30;3.90;;;25.80;60.70;;;;;;5004598;28;20443;-67
2022/06/24 00:08:12;;;;;;;4.38;3.80;;;25.80;60.70;;;;;;5011944;28;20389;-68
2022/06/24 00:10:38;;;;;;;4.30;3.90;;;25.80;60.70;;;;;;4994632;28;20407;-68
2022/06/24 00:13:06;;;;;;;3.92;3.53;;;25.80;60.60;;;;;;5011693;28;20884;-68
2022/06/24 00:15:34;;;;;;;4.30;3.90;;;25.80;60.60;;;;;;5012069;28;20393;-68
2022/06/24 00:18:19;;;;;;;4.13;3.72;;;25.80;60.60;;;;;;5011777;28;20872;-68
2022/06/24 00:20:50;;;;;;;4.27;3.87;;;25.80;60.60;;;;;;4994238;28;20431;-68
2022/06/24 00:23:17;;;;;;;5.22;3.85;;;25.80;60.60;;;;;;5012073;28;20460;-68
2022/06/24 00:25:45;;;;;;;4.32;3.88;;;25.80;60.60;;;;;;5011737;28;20401;-68
2022/06/24 00:28:12;;;;;;;4.23;3.80;;;25.80;60.60;;;;;;5011739;28;20476;-68
2022/06/24 00:30:51;;;;;;;4.20;3.80;;;25.80;60.60;;;;;;4994224;28;20460;-68
2022/06/24 00:33:19;;;;;;;4.68;3.70;;;25.80;60.60;;;;;;5011374;28;20459;-68
2022/06/24 00:36:06;;;;;;;4.17;3.67;;;25.80;60.60;;;;;;4994245;28;20491;-68
2022/06/24 00:38:34;;;;;;;4.57;3.92;;;25.80;60.60;;;;;;5011628;28;20439;-68
2022/06/24 00:41:05;;;;;;;4.20;3.80;;;25.80;60.60;;;;;;5011784;28;20393;-67
2022/06/24 00:43:39;;;;;;;5.05;3.80;;;25.80;60.70;;;;;;4993997;28;20428;-68
2022/06/24 00:46:14;;;;;;;4.18;3.78;;;25.80;61.20;;;;;;5011045;28;20415;-67
2022/06/24 00:48:46;;;;;;;4.00;3.60;;;25.70;60.50;;;;;;5011436;28;20397;-67
2022/06/24 00:51:11;;;;;;;4.47;3.73;;;25.70;60.50;;;;;;4993856;28;20436;-68
2022/06/24 00:53:46;;;;;;;4.63;3.75;;;25.70;60.60;;;;;;5011564;28;20428;-68
2022/06/24 00:56:15;;;;;;;4.00;3.60;;;25.70;60.60;;;;;;5011286;28;20393;-67
2022/06/24 00:58:56;;;;;;;4.20;3.80;;;25.70;60.60;;;;;;4993879;28;20393;-68
2022/06/24 01:01:28;;;;;;;4.32;3.90;;;25.70;60.60;;;;;;5011733;28;20442;-68
2022/06/24 01:03:56;;;;;;;4.05;3.65;;;25.70;60.60;;;;;;5011235;28;20409;-68
2022/06/24 01:06:23;;;;;;;4.00;3.60;;;25.70;60.60;;;;;;5011624;28;20472;-68
2022/06/24 01:08:48;;;;;;;4.57;3.60;;;25.70;60.60;;;;;;5011456;28;20389;-68
2022/06/24 01:11:41;;;;;;;3.90;3.50;;;25.70;60.50;;;;;;5011468;28;20719;-68
2022/06/24 01:14:07;;;;;;;4.47;3.80;;;25.70;60.60;;;;;;5011047;28;20408;-65
2022/06/24 01:16:34;;;;;;;3.92;3.53;;;25.70;60.50;;;;;;5011259;28;20393;-68
2022/06/24 01:19:04;;;;;;;4.03;3.63;;;25.70;60.50;;;;;;5011163;28;20397;-68
2022/06/24 01:21:39;;;;;;;4.07;3.67;;;25.60;60.50;;;;;;5011319;28;20396;-68
2022/06/24 01:24:09;;;;;;;3.88;3.40;;;25.60;60.50;;;;;;5010852;28;20479;-67
2022/06/24 01:26:37;;;;;;;3.92;3.35;;;25.60;60.50;;;;;;5011237;28;20393;-68
2022/06/24 01:29:03;;;;;;;4.50;3.63;;;25.60;60.50;;;;;;4993682;28;20758;-68
2022/06/24 01:31:29;;;;;;;3.90;3.30;;;25.60;60.50;;;;;;5011257;28;20458;-67
2022/06/24 01:33:55;;;;;;;3.95;3.50;;;25.60;60.50;;;;;;4993481;28;20797;-67
2022/06/24 01:36:21;;;;;;;4.00;3.50;;;25.60;60.50;;;;;;4993518;28;20427;-67
2022/06/24 01:38:47;;;;;;;4.03;3.63;;;25.60;60.50;;;;;;5011001;28;20388;-67
2022/06/24 01:41:12;;;;;;;4.03;3.50;;;25.60;60.50;;;;;;5011164;28;20404;-67
2022/06/24 01:43:38;;;;;;;4.20;3.70;;;25.60;60.50;;;;;;4993567;28;20498;-67
2022/06/24 01:46:04;;;;;;;3.60;3.22;;;25.60;60.50;;;;;;5010611;28;20441;-68
2022/06/24 01:48:30;;;;;;;4.00;3.60;;;25.60;60.50;;;;;;5011040;28;20463;-67
2022/06/24 01:50:56;;;;;;;4.10;3.53;;;25.60;60.50;;;;;;5011115;28;20393;-67
2022/06/24 01:53:22;;;;;;;4.07;3.67;;;25.60;60.50;;;;;;5011146;28;20769;-67
2022/06/24 01:55:47;;;;;;;4.25;3.75;;;25.60;60.50;;;;;;5010969;28;20531;-67
2022/06/24 01:58:13;;;;;;;3.87;3.47;;;25.60;60.50;;;;;;4993066;28;20451;-67
2022/06/24 02:00:38;;;;;;;3.90;3.10;;;25.60;60.50;;;;;;4993243;28;20428;-67
2022/06/24 02:03:05;;;;;;;4.18;3.78;;;25.60;60.50;;;;;;4993816;28;20820;-67
2022/06/24 02:05:31;;;;;;;4.30;3.28;;;25.60;60.50;;;;;;5014514;28;20411;-67
2022/06/24 02:07:57;;;;;;;3.70;3.30;;;25.60;60.50;;;;;;4996737;28;20401;-67
2022/06/24 02:13:28;;;;;;;3.80;3.10;;;25.60;60.50;;;;;;5014530;28;20458;-67
2022/06/24 02:15:55;;;;;;;3.78;3.10;;;25.50;60.40;;;;;;4996603;28;20412;-67
2022/06/24 02:18:21;;;;;;;3.60;3.03;;;25.50;60.40;;;;;;5014205;28;20467;-67
2022/06/24 02:20:47;;;;;;;3.47;3.05;;;25.60;60.50;;;;;;4996712;28;20396;-67
2022/06/24 02:23:13;;;;;;;3.67;2.83;;;25.60;60.50;;;;;;5014288;28;20392;-67
2022/06/24 02:25:38;;;;;;;4.13;3.25;;;25.50;60.40;;;;;;5014127;28;20401;-67
2022/06/24 02:28:04;;;;;;;3.50;2.77;;;25.50;60.40;;;;;;4996138;28;20471;-67
2022/06/24 02:30:30;;;;;;;3.53;2.88;;;25.50;60.40;;;;;;5014157;28;20487;-67
2022/06/24 02:32:55;;;;;;;3.70;2.80;;;25.50;60.40;;;;;;5014246;28;20789;-67
2022/06/24 02:35:21;;;;;;;3.10;2.80;;;25.50;60.40;;;;;;5014074;28;20384;-67
2022/06/24 02:37:47;;;;;;;3.35;2.80;;;25.50;60.40;;;;;;5013787;28;20389;-67
2022/06/24 02:42:58;;;;;;;3.33;2.97;;;25.50;60.40;;;;;;5014203;28;20451;-67
2022/06/24 02:45:23;;;;;;;3.47;2.90;;;25.50;60.40;;;;;;5013618;28;20504;-67
2022/06/24 02:47:49;;;;;;;3.88;2.60;;;25.50;60.40;;;;;;5013878;28;20385;-67
2022/06/24 02:50:15;;;;;;;3.03;2.72;;;25.50;60.40;;;;;;5013400;28;20451;-67
2022/06/24 02:52:41;;;;;;;2.93;2.50;;;25.50;60.40;;;;;;5013433;28;20471;-67
2022/06/24 02:55:07;;;;;;;2.92;2.60;;;25.50;60.40;;;;;;5013739;28;20948;-67
2022/06/24 02:57:33;;;;;;;3.05;2.70;;;25.50;60.40;;;;;;5013542;28;20428;-67
2022/06/24 02:59:58;;;;;;;3.57;2.60;;;25.50;60.40;;;;;;5013392;28;20451;-67
2022/06/24 03:02:24;;;;;;;3.30;2.60;;;25.50;60.40;;;;;;5013368;28;20393;-68
2022/06/24 03:04:50;;;;;;;3.00;2.70;;;25.50;60.40;;;;;;4995894;28;20417;-67
2022/06/24 03:07:16;;;;;;;5.57;2.73;;;25.50;60.40;;;;;;5013470;28;20393;-67
2022/06/24 03:09:41;;;;;;;6.22;2.83;;;25.50;60.60;;;;;;5013310;28;20396;-67
2022/06/24 03:12:07;;;;;;;5.47;2.60;;;25.50;60.70;;;;;;5012788;28;20739;-67
2022/06/24 03:14:33;;;;;;;4.13;2.78;;;25.50;61.10;;;;;;5013229;28;20491;-67
2022/06/24 03:16:59;;;;;;;6.93;3.40;;;25.50;60.70;;;;;;4996046;28;20579;-67
2022/06/24 03:19:24;;;;;;;7.90;3.70;;;25.50;61.20;;;;;;5014110;28;20393;-67
2022/06/24 03:21:50;;;;;;;4.85;2.70;;;25.50;62.40;;;;;;5013034;28;20392;-67
2022/06/24 03:24:16;;;;;;;7.43;2.73;;;25.50;61.40;;;;;;5012580;28;20880;-67
2022/06/24 03:26:42;;;;;;;5.30;2.10;;;25.50;61.10;;;;;;5012964;28;20384;-67
2022/06/24 03:29:07;;;;;;;7.63;2.20;;;25.50;60.90;;;;;;5012858;28;20772;-67
2022/06/24 03:31:33;;;;;;;5.20;2.03;;;25.50;60.50;;;;;;4995068;28;20400;-67
2022/06/24 03:33:59;;;;;;;4.03;1.93;;;25.50;60.40;;;;;;5012586;28;20393;-67
2022/06/24 03:36:25;;;;;;;3.97;2.03;;;25.50;61.20;;;;;;5012603;28;20489;-67
2022/06/24 03:38:51;;;;;;;3.47;1.80;;;25.50;60.90;;;;;;5012686;28;20911;-67
2022/06/24 03:41:17;;;;;;;4.57;1.98;;;25.50;61.00;;;;;;5012758;28;20425;-67
2022/06/24 03:43:42;;;;;;;3.53;1.63;;;25.50;60.60;;;;;;5012586;28;20459;-68
2022/06/24 03:46:08;;;;;;;3.97;1.70;;;25.50;61.00;;;;;;5012311;28;20833;-67
2022/06/24 03:48:33;;;;;;;6.03;1.70;;;25.50;60.70;;;;;;4995122;28;20492;-67
2022/06/24 03:50:59;;;;;;;4.70;1.50;;;25.40;61.20;;;;;;4995262;28;20446;-66
2022/06/24 03:53:25;;;;;;;5.38;1.70;;;25.50;61.20;;;;;;5012439;28;20393;-67
2022/06/24 03:55:52;;;;;;;5.73;1.77;;;25.40;60.90;;;;;;5012492;28;20440;-66
2022/06/24 03:58:19;;;;;;;4.70;1.90;;;25.50;61.80;;;;;;4994431;28;20412;-66
2022/06/24 04:00:45;;;;;;;5.35;1.70;;;25.40;61.40;;;;;;5012199;28;20881;-67
2022/06/24 04:03:10;;;;;;;3.42;1.90;;;25.40;61.30;;;;;;5012131;28;20412;-67
2022/06/24 04:05:36;;;;;;;3.78;1.80;;;25.40;61.20;;;;;;5012196;28;20482;-67
2022/06/24 04:08:02;;;;;;;2.83;1.77;;;25.40;61.00;;;;;;4994568;28;20392;-67
2022/06/24 04:10:28;;;;;;;8.23;1.83;;;25.40;61.00;;;;;;5011430;28;20404;-66
2022/06/24 04:12:53;;;;;;;7.10;1.67;;;25.30;61.00;;;;;;5011756;28;20749;-67
2022/06/24 04:15:19;;;;;;;5.60;1.80;;;25.30;61.10;;;;;;5011963;28;20904;-66
2022/06/24 04:17:47;;;;;;;5.93;1.90;;;25.30;61.30;;;;;;5011955;28;20486;-66
2022/06/24 04:20:14;;;;;;;6.65;2.10;;;25.30;61.50;;;;;;5011700;28;20397;-66
2022/06/24 04:22:39;;;;;;;9.20;3.30;;;25.30;61.60;;;;;;5011498;28;20420;-66
2022/06/24 04:25:06;;;;;;;13.07;4.93;;;25.30;61.70;;;;;;4994380;28;20498;-67
2022/06/24 04:27:31;;;;;;;9.68;3.83;;;25.40;62.90;;;;;;5011417;28;20472;-67
2022/06/24 04:30:02;;;;;;;7.38;2.78;;;25.40;62.90;;;;;;4991012;28;20995;-68
2022/06/24 04:32:28;;;;;;;7.57;2.23;;;25.40;62.40;;;;;;4994203;28;20397;-68
2022/06/24 04:34:54;;;;;;;4.53;1.90;;;25.40;62.50;;;;;;5011879;28;20892;-68
2022/06/24 04:37:19;;;;;;;7.97;2.30;;;25.40;62.20;;;;;;5011629;28;20424;-69
2022/06/24 04:39:45;;;;;;;5.35;2.10;;;25.40;63.50;;;;;;5011843;28;20389;-68
2022/06/24 04:42:11;;;;;;;8.18;2.20;;;25.40;61.80;;;;;;5011158;28;20403;-66
2022/06/24 04:44:37;;;;;;;5.28;1.98;;;25.40;63.00;;;;;;5011464;28;20429;-66
2022/06/24 04:47:03;;;;;;;4.70;2.13;;;25.40;62.20;;;;;;5006788;28;20457;-66
2022/06/24 04:49:29;;;;;;;4.83;1.87;;;25.40;62.30;;;;;;5000348;28;20430;-67
2022/06/24 04:51:54;;;;;;;6.28;2.13;;;25.40;61.90;;;;;;4996784;28;20394;-67
2022/06/24 04:54:21;;;;;;;5.37;1.63;;;25.40;62.50;;;;;;4991402;28;20426;-67
2022/06/24 04:56:47;;;;;;;5.18;1.90;;;25.40;61.50;;;;;;4992274;28;20390;-67
2022/06/24 04:59:12;;;;;;;4.82;2.13;;;25.40;62.30;;;;;;4992183;28;20409;-67
2022/06/24 05:01:38;;;;;;;4.87;1.90;;;25.40;62.90;;;;;;4978719;28;21093;-67
2022/06/24 05:04:04;;;;;;;5.05;1.80;;;25.40;62.90;;;;;;5010611;28;20452;-67
2022/06/24 05:06:30;;;;;;;4.82;1.75;;;25.40;62.10;;;;;;5010875;28;20424;-66
2022/06/24 05:08:56;;;;;;;4.20;1.60;;;25.40;61.50;;;;;;5011286;28;20812;-67
2022/06/24 05:11:22;;;;;;;3.35;1.55;;;25.40;62.10;;;;;;5011217;28;20389;-66
2022/06/24 05:13:48;;;;;;;4.13;1.70;;;25.40;61.60;;;;;;5011751;28;21122;-66
2022/06/24 05:16:13;;;;;;;3.47;1.70;;;25.40;61.50;;;;;;4993360;28;20393;-67
2022/06/24 05:18:39;;;;;;;3.40;1.70;;;25.40;61.70;;;;;;5011124;28;20396;-67
2022/06/24 05:21:05;;;;;;;5.03;1.90;;;25.40;61.50;;;;;;5011064;28;20404;-67
2022/06/24 05:23:30;;;;;;;4.27;1.70;;;25.40;61.40;;;;;;5010335;28;20459;-67
2022/06/24 05:25:56;;;;;;;3.53;1.50;;;25.30;61.40;;;;;;5010835;28;20397;-67
2022/06/24 05:28:22;;;;;;;2.63;1.40;;;25.30;61.20;;;;;;5010759;28;20388;-68
2022/06/24 05:30:54;;;;;;;2.90;1.50;;;25.30;61.20;;;;;;4993464;28;20507;-67
2022/06/24 05:33:20;;;;;;;2.45;1.60;;;25.30;61.10;;;;;;4993444;28;20397;-66
2022/06/24 05:35:45;;;;;;;3.90;1.70;;;25.30;61.10;;;;;;4993881;28;20758;-67
2022/06/24 05:38:11;;;;;;;3.80;1.90;;;25.30;60.90;;;;;;5010984;28;20396;-67
2022/06/24 05:40:37;;;;;;;3.15;1.60;;;25.30;60.90;;;;;;5014626;28;20392;-67
2022/06/24 05:43:02;;;;;;;2.63;1.40;;;25.30;61.00;;;;;;5014729;28;20448;-67
2022/06/24 05:45:28;;;;;;;5.03;1.90;;;25.30;60.80;;;;;;5014930;28;20823;-67
2022/06/24 05:47:53;;;;;;;3.63;1.75;;;25.30;60.90;;;;;;5015038;28;20393;-67
2022/06/24 05:50:19;;;;;;;4.13;1.80;;;25.30;60.80;;;;;;4996634;28;20454;-67
2022/06/24 05:55:30;;;;;;;4.15;1.80;;;25.30;60.80;;;;;;5015432;28;20424;-67
2022/06/24 05:57:56;;;;;;;3.55;2.05;;;25.30;61.10;;;;;;5014727;28;20819;-67
2022/06/24 06:00:21;;;;;;;3.93;1.83;;;25.30;60.90;;;;;;4999831;28;20550;-67
2022/06/24 06:02:47;;;;;;;4.22;1.60;;;25.30;61.20;;;;;;4994608;28;20410;-67
2022/06/24 06:05:14;;;;;;;3.60;1.80;;;25.30;61.10;;;;;;4996608;28;20421;-67
2022/06/24 06:07:39;;;;;;;4.03;1.73;;;25.30;61.10;;;;;;4996517;28;20756;-67
2022/06/24 06:10:05;;;;;;;3.05;1.73;;;25.30;60.90;;;;;;5014243;28;20397;-67
2022/06/24 06:12:34;;;;;;;3.40;1.80;;;25.30;60.70;;;;;;4996387;28;20397;-67
2022/06/24 06:15:00;;;;;;;2.63;1.70;;;25.30;61.00;;;;;;5014066;28;20845;-67
2022/06/24 06:17:25;;;;;;;4.03;1.80;;;25.30;61.20;;;;;;5014204;28;20428;-67
2022/06/24 06:19:51;;;;;;;3.97;2.20;;;25.30;61.10;;;;;;5014143;28;20768;-67
2022/06/24 06:22:16;;;;;;;5.60;2.30;;;25.30;61.20;;;;;;5013603;28;20528;-67
2022/06/24 06:24:43;;;;;;;5.20;2.40;;;25.30;60.90;;;;;;5013769;28;20424;-68
2022/06/24 06:27:09;;;;;;;4.20;2.10;;;25.30;60.90;;;;;;5013934;28;20412;-67
2022/06/24 06:29:34;;;;;;;4.07;2.00;;;25.30;60.90;;;;;;5013810;28;20389;-67
2022/06/24 06:32:00;;;;;;;3.70;2.00;;;25.30;61.30;;;;;;5013890;28;20428;-67
2022/06/24 06:34:26;;;;;;;3.70;1.80;;;25.30;61.30;;;;;;5013388;28;20420;-67
2022/06/24 06:36:51;;;;;;;2.80;1.80;;;25.30;61.10;;;;;;5013638;28;20495;-67
2022/06/24 06:39:17;;;;;;;3.75;1.90;;;25.30;61.10;;;;;;5013426;28;20381;-67
2022/06/24 06:41:46;;;;;;;3.65;1.92;;;25.30;61.20;;;;;;5013481;28;20397;-67
2022/06/24 06:44:14;;;;;;;5.35;2.10;;;25.30;60.90;;;;;;5013115;28;20413;-67
2022/06/24 06:46:41;;;;;;;4.15;1.90;;;25.30;60.90;;;;;;5013349;28;20734;-66
2022/06/24 06:49:07;;;;;;;4.72;1.77;;;25.30;60.90;;;;;;5013074;28;20471;-67
2022/06/24 06:51:33;;;;;;;3.85;1.88;;;25.30;61.00;;;;;;5010941;28;20402;-66
2022/06/24 06:53:58;;;;;;;3.40;1.77;;;25.30;60.90;;;;;;5012725;28;20397;-67
2022/06/24 06:56:24;;;;;;;4.05;1.77;;;25.30;60.90;;;;;;5012654;28;20396;-66
2022/06/24 06:58:49;;;;;;;3.65;2.13;;;25.30;61.00;;;;;;5013100;28;20889;-66
2022/06/24 07:01:15;;;;;;;3.70;1.93;;;25.30;60.90;;;;;;5013094;28;20400;-66
2022/06/24 07:03:41;;;;;;;2.83;1.92;;;25.30;61.20;;;;;;5012791;28;20420;-66
2022/06/24 07:06:06;;;;;;;3.20;1.88;;;25.30;60.90;;;;;;5013048;28;20483;-67
2022/06/24 07:08:32;;;;;;;3.37;1.80;;;25.30;60.90;;;;;;5012488;28;20397;-66
2022/06/24 07:10:58;;;;;;;3.33;1.83;;;25.30;60.90;;;;;;5012693;28;20425;-66
2022/06/24 07:13:24;;;;;;;4.15;2.05;;;25.30;60.80;;;;;;5013000;28;20428;-66
2022/06/24 07:15:49;;;;;;;3.80;2.10;;;25.30;60.90;;;;;;4995343;28;20484;-66
2022/06/24 07:18:15;;;;;;;3.77;2.00;;;25.30;60.90;;;;;;5012570;28;20397;-67
2022/06/24 07:20:43;;;;;;;3.60;2.15;;;25.30;60.80;;;;;;5012405;28;20886;-66
2022/06/24 07:23:09;;;;;;;3.17;2.03;;;25.30;60.90;;;;;;5012789;28;20527;-67
2022/06/24 07:25:35;;;;;;;3.13;2.00;;;25.30;60.90;;;;;;5012830;28;20878;-66
2022/06/24 07:28:01;;;;;;;2.97;1.87;;;25.30;61.00;;;;;;5012406;28;20389;-66
2022/06/24 07:30:27;;;;;;;3.63;1.90;;;25.30;60.90;;;;;;5012151;28;20397;-66
2022/06/24 07:32:53;;;;;;;2.97;1.83;;;25.30;60.90;;;;;;5012378;28;20432;-67
2022/06/24 07:35:19;;;;;;;2.75;1.80;;;25.30;60.90;;;;;;4995279;28;20475;-66
2022/06/24 07:37:44;;;;;;;3.27;2.00;;;25.40;60.90;;;;;;4994938;28;20487;-66
2022/06/24 07:40:10;;;;;;;3.10;2.00;;;25.30;60.90;;;;;;5012741;28;20405;-66
2022/06/24 07:42:36;;;;;;;2.40;1.70;;;25.30;60.90;;;;;;5012133;28;20790;-66
2022/06/24 07:45:02;;;;;;;2.90;1.80;;;25.30;60.90;;;;;;5012169;28;20455;-66
2022/06/24 07:47:28;;;;;;;3.22;1.95;;;25.30;60.90;;;;;;5012466;28;20435;-67
2022/06/24 07:49:53;;;;;;;3.15;2.00;;;25.30;60.90;;;;;;4994901;28;20777;-66
2022/06/24 07:52:19;;;;;;;3.37;1.73;;;25.30;60.90;;;;;;4994140;28;20388;-67
2022/06/24 07:54:45;;;;;;;2.65;1.80;;;25.30;60.90;;;;;;4994308;28;20901;-66
2022/06/24 07:57:10;;;;;;;2.90;1.70;;;25.30;60.90;;;;;;5012325;28;20393;-67
2022/06/24 07:59:37;;;;;;;2.80;2.00;;;25.30;60.80;;;;;;5012138;28;20430;-67
2022/06/24 08:02:06;;;;;;;2.80;1.70;;;25.30;60.90;;;;;;4994026;28;20756;-66
2022/06/24 08:04:32;;;;;;;3.17;2.00;;;25.30;60.90;;;;;;5010189;28;20425;-66
2022/06/24 08:06:58;;;;;;;2.92;1.92;;;25.30;60.90;;;;;;5003162;28;20477;-66
2022/06/24 08:09:27;;;;;;;2.42;1.77;;;25.30;60.90;;;;;;4991276;28;20399;-67
2022/06/24 08:11:54;;;;;;;3.10;1.92;;;25.30;60.90;;;;;;5011486;28;20410;-66
2022/06/24 08:14:20;;;;;;;3.05;2.05;;;25.30;60.90;;;;;;5011709;28;20405;-66
2022/06/24 08:16:46;;;;;;;2.40;1.90;;;25.30;60.90;;;;;;5011765;28;20447;-67
2022/06/24 08:19:12;;;;;;;2.50;1.90;;;25.30;60.90;;;;;;5011937;28;20452;-67
2022/06/24 08:21:38;;;;;;;3.30;2.00;;;25.30;60.90;;;;;;5011701;28;20385;-66
2022/06/24 08:24:04;;;;;;;2.45;1.90;;;25.30;60.90;;;;;;5011845;28;20424;-66
2022/06/24 08:26:30;;;;;;;3.22;1.90;;;25.30;60.90;;;;;;5011313;28;20392;-66
2022/06/24 08:28:56;;;;;;;3.40;1.90;;;25.30;60.90;;;;;;5011771;28;20389;-66
2022/06/24 08:31:22;;;;;;;3.78;2.10;;;25.30;60.90;;;;;;5011570;28;20396;-67
2022/06/24 08:33:48;;;;;;;4.20;2.10;;;25.30;60.90;;;;;;5011559;28;20399;-66
2022/06/24 08:36:13;;;;;;;2.73;1.70;;;25.30;60.90;;;;;;5011791;28;20494;-66
2022/06/24 08:38:39;;;;;;;3.03;1.95;;;25.30;60.90;;;;;;4993360;28;20425;-66
2022/06/24 08:41:05;;;;;;;2.72;1.90;;;25.30;60.90;;;;;;5011603;28;20450;-67
2022/06/24 08:43:33;;;;;;;2.93;1.80;;;25.30;61.00;;;;;;5011433;28;20416;-67
2022/06/24 08:46:00;;;;;;;3.08;2.00;;;25.30;60.90;;;;;;5012238;28;20444;-66
2022/06/24 08:48:27;;;;;;;2.40;1.80;;;25.30;60.90;;;;;;5012532;28;20450;-66
2022/06/24 08:50:53;;;;;;;10.50;2.33;;;25.30;60.90;;;;;;4994731;28;20455;-66
2022/06/24 08:53:21;;;;;;;6.38;2.15;;;25.30;60.90;;;;;;5011732;28;20388;-66
2022/06/24 08:55:50;;;;;;;5.13;1.90;;;25.30;60.90;;;;;;5012066;28;20496;-67
2022/06/24 08:58:17;;;;;;;5.93;2.30;;;25.30;60.90;;;;;;5011635;28;20448;-67
2022/06/24 09:00:43;;;;;;;3.47;2.05;;;25.30;61.40;;;;;;5011096;28;20400;-66
2022/06/24 09:03:09;;;;;;;3.70;2.00;;;25.40;61.10;;;;;;4993682;28;20414;-66
2022/06/24 09:05:40;;;;;;;4.10;2.20;;;25.40;61.20;;;;;;4993440;28;20440;-66
2022/06/24 09:08:08;;;;;;;2.75;1.85;;;25.40;61.20;;;;;;5011128;28;20873;-66
2022/06/24 09:10:35;;;;;;;3.23;1.80;;;25.40;61.20;;;;;;4992743;28;20405;-66
2022/06/24 09:13:01;;;;;;;4.07;1.90;;;25.40;61.10;;;;;;4995629;28;20563;-67
2022/06/24 09:15:27;;;;;;;3.85;2.05;;;25.40;61.10;;;;;;5009251;28;20843;-66
2022/06/24 09:17:57;;;;;;;4.20;1.80;;;25.40;61.00;;;;;;4987128;28;20396;-66
2022/06/24 09:20:25;;;;;;;2.95;2.08;;;25.40;61.00;;;;;;5003015;28;20390;-66
2022/06/24 09:23:01;;;;;;;3.50;1.95;;;25.40;60.90;;;;;;5015296;28;20392;-66
2022/06/24 09:25:26;;;;;;;2.60;1.85;;;25.40;61.00;;;;;;5008406;28;20424;-66
2022/06/24 09:27:52;;;;;;;2.67;1.90;;;25.40;60.90;;;;;;4988357;28;20402;-66
2022/06/24 09:30:19;;;;;;;4.00;2.07;;;25.40;60.90;;;;;;5005563;28;20398;-67
2022/06/24 09:32:51;;;;;;;2.80;1.90;;;25.40;60.90;;;;;;5006134;28;20875;-66
2022/06/24 09:35:18;;;;;;;3.22;1.80;;;25.40;60.90;;;;;;4986638;28;20820;-66
2022/06/24 09:37:46;;;;;;;3.38;1.90;;;25.40;60.90;;;;;;5005731;28;20397;-66
2022/06/24 09:40:27;;;;;;;3.38;2.00;;;25.40;60.90;;;;;;5005073;28;20388;-66
2022/06/24 09:43:04;;;;;;;3.10;2.10;;;25.40;60.80;;;;;;5004485;28;20432;-67
2022/06/24 09:45:46;;;;;;;4.00;1.80;;;25.40;60.90;;;;;;4977411;28;20430;-66
2022/06/24 09:48:24;;;;;;;2.45;1.80;;;25.40;60.80;;;;;;4995291;28;20390;-67
2022/06/24 09:50:50;;;;;;;3.08;1.88;;;25.40;60.80;;;;;;4977441;28;20434;-66
2022/06/24 09:53:16;;;;;;;2.85;1.70;;;25.40;60.80;;;;;;4977428;28;20810;-67
2022/06/24 09:55:42;;;;;;;2.42;1.75;;;25.40;60.80;;;;;;4995426;28;20848;-66
2022/06/24 09:58:08;;;;;;;2.78;1.70;;;25.40;60.70;;;;;;4994802;28;20410;-66
2022/06/24 10:00:41;;;;;;;2.35;2.00;;;25.40;60.70;;;;;;4994909;28;20408;-66
2022/06/24 10:03:11;;;;;;;2.30;1.90;;;25.40;60.70;;;;;;5003427;28;20395;-66
2022/06/24 10:05:40;;;;;;;2.95;1.92;;;25.40;60.70;;;;;;5001671;28;20427;-66
2022/06/24 10:08:09;;;;;;;2.93;1.70;;;25.40;60.70;;;;;;5003731;28;20393;-66
2022/06/24 10:10:35;;;;;;;2.92;1.92;;;25.40;60.60;;;;;;5001835;28;20475;-67
2022/06/24 10:13:07;;;;;;;6.50;3.08;;;25.50;60.70;;;;;;4994860;28;20426;-66
2022/06/24 10:15:33;;;;;;;13.70;7.63;;;25.50;61.00;;;;;;4994410;28;20755;-67
2022/06/24 10:18:00;;;;;;;9.77;5.10;;;25.50;62.40;;;;;;4994638;28;20398;-67
2022/06/24 10:20:26;;;;;;;6.85;3.70;;;25.50;61.30;;;;;;4994259;28;20397;-66
2022/06/24 10:22:54;;;;;;;4.75;2.50;;;25.50;61.70;;;;;;4994192;28;20395;-67
2022/06/24 10:25:48;;;;;;;5.65;2.55;;;25.50;61.30;;;;;;4993283;28;20428;-67
2022/06/24 10:28:14;;;;;;;3.88;2.40;;;25.50;61.40;;;;;;4994383;28;20528;-67
2022/06/24 10:30:39;;;;;;;3.70;2.10;;;25.50;61.10;;;;;;4993845;28;20387;-66
2022/06/24 10:33:19;;;;;;;4.13;2.10;;;25.50;61.20;;;;;;4994320;28;20413;-67
2022/06/24 10:36:29;;;;;;;5.13;2.10;;;25.50;60.90;;;;;;4994187;28;20469;-67
2022/06/24 10:39:09;;;;;;;4.88;2.08;;;25.60;61.00;;;;;;4967603;28;20488;-67
2022/06/24 10:41:39;;;;;;;3.72;1.80;;;25.60;60.80;;;;;;4975793;28;20399;-67
2022/06/24 10:44:35;;;;;;;5.03;1.90;;;25.50;60.90;;;;;;4993588;28;20561;-67
2022/06/24 10:47:14;;;;;;;4.90;2.15;;;25.60;60.80;;;;;;4992106;28;20415;-67
2022/06/24 10:49:52;;;;;;;2.92;1.85;;;25.60;60.60;;;;;;4993771;28;20955;-66
2022/06/24 10:52:41;;;;;;;3.20;1.90;;;25.60;60.60;;;;;;4993898;28;20406;-67
2022/06/24 10:55:15;;;;;;;2.72;1.90;;;25.60;60.70;;;;;;4993890;28;20391;-67
2022/06/24 10:57:46;;;;;;;2.83;2.00;;;25.60;60.40;;;;;;4993731;28;20497;-67
2022/06/24 11:00:13;;;;;;;3.20;1.88;;;25.60;60.40;;;;;;4976379;28;20409;-67
2022/06/24 11:02:39;;;;;;;3.38;1.90;;;25.60;60.50;;;;;;4975783;28;20474;-67
2022/06/24 11:05:17;;;;;;;2.83;1.80;;;25.60;60.30;;;;;;4993734;28;20426;-67
2022/06/24 11:07:48;;;;;;;3.08;1.75;;;25.60;60.30;;;;;;4993603;28;20382;-67
2022/06/24 11:10:15;;;;;;;3.75;1.70;;;25.60;60.30;;;;;;4993824;28;20409;-66
2022/06/24 11:12:41;;;;;;;4.13;2.10;;;25.60;60.30;;;;;;4992662;28;20454;-66
2022/06/24 11:15:07;;;;;;;5.93;2.10;;;25.60;60.50;;;;;;4993530;28;20426;-67
2022/06/24 11:17:40;;;;;;;8.15;3.10;;;25.60;60.60;;;;;;4975137;28;20446;-66
2022/06/24 11:20:06;;;;;;;7.80;3.50;;;25.60;60.30;;;;;;4993770;28;20397;-67
2022/06/24 11:22:47;;;;;;;7.70;2.80;;;25.60;60.70;;;;;;4992900;28;20894;-67
2022/06/24 11:25:15;;;;;;;6.57;2.88;;;25.60;61.00;;;;;;4993236;28;20422;-67
2022/06/24 11:27:41;;;;;;;7.80;2.28;;;25.70;61.50;;;;;;4975780;28;20398;-67
2022/06/24 11:30:09;;;;;;;5.38;2.22;;;25.70;60.90;;;;;;4993525;28;20434;-67
2022/06/24 11:32:55;;;;;;;8.35;2.20;;;25.70;60.70;;;;;;4991360;28;20390;-67
2022/06/24 11:35:22;;;;;;;8.60;2.70;;;25.70;60.40;;;;;;4992646;28;20473;-67
2022/06/24 11:37:48;;;;;;;11.48;2.80;;;25.70;61.00;;;;;;4993019;28;20433;-67
2022/06/24 11:40:21;;;;;;;7.90;2.60;;;25.70;60.70;;;;;;4992454;28;20477;-67
2022/06/24 11:42:47;;;;;;;10.25;2.70;;;25.70;60.70;;;;;;4993655;28;20401;-67
2022/06/24 11:45:13;;;;;;;8.52;2.63;;;25.70;60.70;;;;;;4992507;28;20430;-67
2022/06/24 11:47:38;;;;;;;10.98;3.20;;;25.70;60.50;;;;;;4992675;28;20390;-67
2022/06/24 11:50:05;;;;;;;8.75;2.95;;;25.70;60.30;;;;;;4975798;28;20410;-67
2022/06/24 11:52:48;;;;;;;7.85;2.80;;;25.70;60.20;;;;;;4992370;28;20871;-67
2022/06/24 11:55:47;;;;;;;8.77;2.55;;;25.70;60.20;;;;;;4992450;28;20402;-67
2022/06/24 11:58:18;;;;;;;7.15;2.28;;;25.70;60.10;;;;;;4978345;28;20414;-67
2022/06/24 12:00:46;;;;;;;6.10;2.30;;;25.70;60.20;;;;;;4981843;28;20470;-67
2022/06/24 12:03:14;;;;;;;5.82;2.33;;;25.70;60.00;;;;;;4995576;28;20912;-68
2022/06/24 12:05:42;;;;;;;6.67;2.43;;;25.70;60.10;;;;;;4994597;28;20432;-67
2022/06/24 12:08:09;;;;;;;6.40;2.42;;;25.70;60.10;;;;;;4994909;28;20400;-67
2022/06/24 12:10:35;;;;;;;6.95;2.40;;;25.80;60.10;;;;;;4996116;28;20404;-67
2022/06/24 12:13:07;;;;;;;5.78;2.40;;;25.80;60.10;;;;;;5011629;28;20396;-67
2022/06/24 12:15:36;;;;;;;5.57;2.20;;;25.70;60.30;;;;;;5011909;28;20535;-67
2022/06/24 12:18:11;;;;;;;4.75;2.20;;;25.70;60.20;;;;;;5012227;28;20502;-67
2022/06/24 12:20:37;;;;;;;5.70;2.28;;;25.70;60.00;;;;;;5011820;28;20420;-67
2022/06/24 12:23:13;;;;;;;7.97;2.30;;;25.80;60.10;;;;;;5011946;28;20877;-67
2022/06/24 12:25:44;;;;;;;6.03;2.10;;;25.80;60.20;;;;;;5012038;28;20891;-68
2022/06/24 12:28:17;;;;;;;6.05;2.30;;;25.80;60.40;;;;;;5011843;28;20436;-67
2022/06/24 12:30:58;;;;;;;4.05;2.03;;;25.80;60.10;;;;;;5011526;28;20397;-67
2022/06/24 12:33:24;;;;;;;5.43;2.05;;;25.80;60.10;;;;;;5011677;28;20400;-68
2022/06/24 12:36:06;;;;;;;5.05;2.10;;;25.80;60.10;;;;;;5011713;28;20397;-67
2022/06/24 12:38:32;;;;;;;5.10;2.00;;;25.80;60.10;;;;;;5011571;28;20377;-68
2022/06/24 12:41:13;;;;;;;3.88;2.13;;;25.80;60.00;;;;;;4995093;28;20400;-67
2022/06/24 12:43:59;;;;;;;6.65;2.10;;;25.80;60.00;;;;;;4994412;28;20462;-68
2022/06/24 12:46:29;;;;;;;4.37;1.97;;;25.90;60.10;;;;;;4994596;28;20923;-67
2022/06/24 12:51:43;;;;;;;4.22;2.00;;;25.80;60.00;;;;;;5012878;28;20420;-67
2022/06/24 12:54:10;;;;;;;4.13;2.05;;;25.90;60.00;;;;;;5012012;28;20397;-68
2022/06/24 12:56:36;;;;;;;4.70;1.85;;;25.90;60.10;;;;;;5011441;28;20397;-68
2022/06/24 12:59:03;;;;;;;3.22;2.10;;;25.90;60.00;;;;;;5011774;28;20400;-68
2022/06/24 13:01:32;;;;;;;3.50;1.90;;;25.90;60.10;;;;;;4987959;28;20422;-68